Time;durP1;ratioP1;P1;durP2;ratioP2;P2;SDS_P1;SDS_P2;PMS_P1;PMS_P2;Temp;Humidity;BMP_temperature;BMP_pressure;BME280_temperature;BME280_humidity;BME280_pressure;Samples;Min_cycle;Max_cycle;Signal;HPM_P1;HPM_P2
2023/04/03 00:01:10;;;;;;;;;;;23.00;55.30;;;;;;5064540;28;19908;-72
2023/04/03 00:03:36;;;;;;;;;;;23.00;57.90;;;;;;5065156;28;19912;-73
2023/04/03 00:06:02;;;;;;;;;;;22.80;55.80;;;;;;5056997;28;19954;-72
2023/04/03 00:08:30;;;;;;;;;;;22.90;58.30;;;;;;5064539;28;19909;-73
2023/04/03 00:10:56;;;;;;;;;;;23.00;55.10;;;;;;5061712;28;19917;-72
2023/04/03 00:13:23;;;;;;;;;;;22.90;56.60;;;;;;5022056;28;19916;-73
2023/04/03 00:15:49;;;;;;;;;;;22.80;56.70;;;;;;5057965;28;20018;-72
2023/04/03 00:18:14;;;;;;;;;;;22.80;56.90;;;;;;5054575;28;19915;-73
2023/04/03 00:20:40;;;;;;;;;;;22.70;57.70;;;;;;5054359;28;20292;-72
2023/04/03 00:23:06;;;;;;;;;;;22.70;57.80;;;;;;5055103;28;19908;-72
2023/04/03 00:25:32;;;;;;;;;;;22.80;56.50;;;;;;5053742;28;19908;-73
2023/04/03 00:27:59;;;;;;;;;;;22.70;57.50;;;;;;5053970;28;20014;-73
2023/04/03 00:30:25;;;;;;;;;;;22.60;58.20;;;;;;5036084;28;19978;-73
2023/04/03 00:32:51;;;;;;;;;;;22.70;57.50;;;;;;5056129;28;20324;-73
2023/04/03 00:35:18;;;;;;;;;;;22.60;57.60;;;;;;5074025;28;20009;-72
2023/04/03 00:37:45;;;;;;;;;;;22.60;58.00;;;;;;5061705;28;20028;-72
2023/04/03 00:40:12;;;;;;;;;;;22.60;57.60;;;;;;5053467;28;19948;-72
2023/04/03 00:42:39;;;;;;;;;;;22.70;58.60;;;;;;5053576;28;19909;-73
2023/04/03 00:45:05;;;;;;;;;;;22.70;58.60;;;;;;5047700;28;19917;-72
2023/04/03 00:47:32;;;;;;;;;;;22.80;57.60;;;;;;5072971;28;19939;-72
2023/04/03 00:49:58;;;;;;;;;;;22.70;56.60;;;;;;5048891;28;19974;-72
2023/04/03 00:52:28;;;;;;;;;;;22.70;56.70;;;;;;5056468;28;19940;-72
2023/04/03 00:54:56;;;;;;;;;;;22.60;58.00;;;;;;5055226;28;20279;-72
2023/04/03 00:57:22;;;;;;;;;;;22.70;57.80;;;;;;5053256;28;19909;-72
2023/04/03 00:59:50;;;;;;;;;;;22.90;58.60;;;;;;5036108;28;19912;-71
2023/04/03 01:02:16;;;;;;;;;;;22.60;57.60;;;;;;5064837;28;20010;-72
2023/04/03 01:04:42;;;;;;;;;;;22.60;57.90;;;;;;5072948;28;20007;-71
2023/04/03 01:07:11;;;;;;;;;;;22.60;56.40;;;;;;5054123;28;20007;-72
2023/04/03 01:09:37;;;;;;;;;;;22.60;56.40;;;;;;5044357;28;20061;-70
2023/04/03 01:12:27;;;;;;;;;;;22.50;58.50;;;;;;5053807;28;20372;-72
2023/04/03 01:14:57;;;;;;;;;;;22.50;58.50;;;;;;4992820;28;19956;-72
2023/04/03 01:17:37;;;;;;;;;;;22.60;57.20;;;;;;4991657;28;20032;-72
2023/04/03 01:20:22;;;;;;;;;;;22.50;56.60;;;;;;4976365;28;19910;-72
2023/04/03 01:22:54;;;;;;;;;;;22.50;57.90;;;;;;4978776;28;19914;-72
2023/04/03 01:25:20;;;;;;;;;;;22.50;58.60;;;;;;4993942;28;19909;-71
2023/04/03 01:27:46;;;;;;;;;;;22.40;58.40;;;;;;4991140;28;19910;-71
2023/04/03 01:30:14;;;;;;;;;;;22.50;56.40;;;;;;4991021;28;20302;-72
2023/04/03 01:32:39;;;;;;;;;;;22.60;58.20;;;;;;5010222;28;19910;-72
2023/04/03 01:35:07;;;;;;;;;;;22.50;57.90;;;;;;4992673;28;19921;-72
2023/04/03 01:37:33;;;;;;;;;;;22.50;58.60;;;;;;4977850;28;19909;-72
2023/04/03 01:39:59;;;;;;;;;;;22.50;57.80;;;;;;4975684;28;19920;-72
2023/04/03 01:42:25;;;;;;;;;;;22.50;57.90;;;;;;4990572;28;20285;-72
2023/04/03 01:44:50;;;;;;;;;;;22.50;57.90;;;;;;4979173;28;19913;-72
2023/04/03 01:47:16;;;;;;;;;;;22.40;58.40;;;;;;4993009;28;20003;-72
2023/04/03 01:49:42;;;;;;;;;;;22.50;58.20;;;;;;4993941;28;19917;-71
2023/04/03 01:52:08;;;;;;;;;;;22.40;56.50;;;;;;5026708;28;19931;-72
2023/04/03 01:54:34;;;;;;;;;;;22.60;56.70;;;;;;5073221;28;19934;-72
2023/04/03 01:57:00;;;;;;;;;;;22.50;57.80;;;;;;5054525;28;19912;-72
2023/04/03 01:59:26;;;;;;;;;;;22.60;58.30;;;;;;5070663;28;20392;-72
2023/04/03 02:01:52;;;;;;;;;;;22.50;58.20;;;;;;5063443;28;19913;-72
2023/04/03 02:04:18;;;;;;;;;;;22.50;56.90;;;;;;5052215;28;19935;-72
2023/04/03 02:06:44;;;;;;;;;;;22.50;57.40;;;;;;5068713;28;19909;-72
2023/04/03 02:09:10;;;;;;;;;;;22.50;57.20;;;;;;5065118;28;19998;-72
2023/04/03 02:11:36;;;;;;;;;;;22.60;58.30;;;;;;5069105;28;20749;-72
2023/04/03 02:14:02;;;;;;;;;;;22.40;56.40;;;;;;5068980;28;19928;-71
2023/04/03 02:16:28;;;;;;;;;;;22.40;57.80;;;;;;5049894;28;19908;-72
2023/04/03 02:18:54;;;;;;;;;;;22.40;58.60;;;;;;5069475;28;19958;-71
2023/04/03 02:21:20;;;;;;;;;;;22.40;58.60;;;;;;5036075;28;20007;-72
2023/04/03 02:23:47;;;;;;;;;;;22.40;57.60;;;;;;5047854;28;19988;-72
2023/04/03 02:26:14;;;;;;;;;;;22.40;57.80;;;;;;5069383;28;19982;-71
2023/04/03 02:28:41;;;;;;;;;;;22.40;58.60;;;;;;5068858;28;19996;-71
2023/04/03 02:31:07;;;;;;;;;;;22.40;58.20;;;;;;5067463;28;20013;-72
2023/04/03 02:33:36;;;;;;;;;;;22.30;57.50;;;;;;5081742;28;19916;-72
2023/04/03 02:36:06;;;;;;;;;;;22.30;57.40;;;;;;5090577;28;20443;-72
2023/04/03 02:38:33;;;;;;;;;;;22.40;57.40;;;;;;5075543;28;19916;-71
2023/04/03 02:41:00;;;;;;;;;;;22.30;57.30;;;;;;5090973;28;20272;-71
2023/04/03 02:43:27;;;;;;;;;;;22.20;58.10;;;;;;5068763;28;20320;-71
2023/04/03 02:45:53;;;;;;;;;;;22.30;58.20;;;;;;5075010;28;20427;-72
2023/04/03 02:48:19;;;;;;;;;;;22.50;58.40;;;;;;5086741;28;19908;-72
2023/04/03 02:50:45;;;;;;;;;;;22.40;57.30;;;;;;5086944;28;19969;-72
2023/04/03 02:53:11;;;;;;;;;;;22.30;55.80;;;;;;5081779;28;19909;-71
2023/04/03 02:55:37;;;;;;;;;;;22.30;57.20;;;;;;5089210;28;19912;-71
2023/04/03 02:58:03;;;;;;;;;;;22.40;57.40;;;;;;5091976;28;19908;-71
2023/04/03 03:00:29;;;;;;;;;;;22.50;57.80;;;;;;5063737;28;20287;-72
2023/04/03 03:02:55;;;;;;;;;;;22.30;56.60;;;;;;5070310;28;20003;-72
2023/04/03 03:05:21;;;;;;;;;;;22.30;57.30;;;;;;5076265;28;20035;-71
2023/04/03 03:07:47;;;;;;;;;;;22.30;57.60;;;;;;5093234;28;19919;-72
2023/04/03 03:10:13;;;;;;;;;;;22.30;57.80;;;;;;5085719;28;19916;-71
2023/04/03 03:12:40;;;;;;;;;;;22.30;58.00;;;;;;5075337;28;19919;-72
2023/04/03 03:15:07;;;;;;;;;;;22.30;57.90;;;;;;5065254;28;19917;-72
2023/04/03 03:17:33;;;;;;;;;;;22.30;57.80;;;;;;5055019;28;19962;-72
2023/04/03 03:19:59;;;;;;;;;;;22.20;58.10;;;;;;5073497;28;19908;-72
2023/04/03 03:22:26;;;;;;;;;;;22.30;57.50;;;;;;5047124;28;19909;-72
2023/04/03 03:24:52;;;;;;;;;;;22.20;58.30;;;;;;5038727;28;19916;-71
2023/04/03 03:27:18;;;;;;;;;;;22.10;57.30;;;;;;5055231;28;20007;-72
2023/04/03 03:29:44;;;;;;;;;;;22.20;56.90;;;;;;5054122;28;20042;-72
2023/04/03 03:32:10;;;;;;;;;;;22.10;58.50;;;;;;5041300;28;19939;-72
2023/04/03 03:34:36;;;;;;;;;;;22.30;58.00;;;;;;5054556;28;19912;-72
2023/04/03 03:37:02;;;;;;;;;;;22.30;57.60;;;;;;5055102;28;19988;-72
2023/04/03 03:39:28;;;;;;;;;;;22.30;57.70;;;;;;5036427;28;19927;-72
2023/04/03 03:41:54;;;;;;;;;;;22.20;57.60;;;;;;5037173;28;19912;-72
2023/04/03 03:44:21;;;;;;;;;;;22.30;58.40;;;;;;5037461;28;19909;-72
2023/04/03 03:46:47;;;;;;;;;;;22.30;57.60;;;;;;5041887;28;19912;-72
2023/04/03 03:49:13;;;;;;;;;;;22.30;58.10;;;;;;5074157;28;19908;-72
2023/04/03 03:51:40;;;;;;;;;;;22.40;56.10;;;;;;5054166;28;19916;-72
2023/04/03 03:54:07;;;;;;;;;;;22.40;58.10;;;;;;5040033;28;19908;-72
2023/04/03 03:56:33;;;;;;;;;;;22.50;57.40;;;;;;5052390;28;19908;-71
2023/04/03 03:58:59;;;;;;;;;;;22.60;57.70;;;;;;5057042;28;20015;-71
2023/04/03 04:01:26;;;;;;;;;;;22.40;56.00;;;;;;5008272;28;19909;-72
2023/04/03 04:03:53;;;;;;;;;;;22.40;57.80;;;;;;4996160;28;19920;-72
2023/04/03 04:06:23;;;;;;;;;;;22.40;57.30;;;;;;5002519;28;19917;-72
2023/04/03 04:08:51;;;;;;;;;;;22.40;58.20;;;;;;4974555;28;19916;-72
2023/04/03 04:11:16;;;;;;;;;;;22.40;57.40;;;;;;4994119;28;20012;-72
2023/04/03 04:13:44;;;;;;;;;;;22.40;56.80;;;;;;4976056;28;19930;-72
2023/04/03 04:16:12;;;;;;;;;;;22.20;57.70;;;;;;4989120;28;20328;-72
2023/04/03 04:18:38;;;;;;;;;;;22.30;57.90;;;;;;4995239;28;19913;-72
2023/04/03 04:21:04;;;;;;;;;;;22.30;57.40;;;;;;4994951;28;19913;-71
2023/04/03 04:23:30;;;;;;;;;;;22.20;56.70;;;;;;4994104;28;20366;-71
2023/04/03 04:25:58;;;;;;;;;;;22.00;56.50;;;;;;4984205;28;19916;-71
2023/04/03 04:28:25;;;;;;;;;;;22.00;56.30;;;;;;4976031;28;19909;-72
2023/04/03 04:30:53;;;;;;;;;;;22.00;56.50;;;;;;4981915;28;19925;-72
2023/04/03 04:33:21;;;;;;;;;;;22.00;57.50;;;;;;5031312;28;19916;-71
2023/04/03 04:35:48;;;;;;;;;;;22.00;58.10;;;;;;5019253;28;20265;-72
2023/04/03 04:38:14;;;;;;;;;;;22.00;58.40;;;;;;5029280;28;19999;-72
2023/04/03 04:40:41;;;;;;;;;;;22.00;55.90;;;;;;4990611;28;20287;-72
2023/04/03 04:43:07;;;;;;;;;;;22.00;58.30;;;;;;4975573;28;19922;-72
2023/04/03 04:45:34;;;;;;;;;;;22.00;56.20;;;;;;4974188;28;19925;-72
2023/04/03 04:48:00;;;;;;;;;;;22.10;58.30;;;;;;4973784;28;19910;-72
2023/04/03 04:50:26;;;;;;;;;;;22.10;56.40;;;;;;4991605;28;20012;-71
2023/04/03 04:52:53;;;;;;;;;;;22.00;56.70;;;;;;4972842;28;19996;-71
2023/04/03 04:55:19;;;;;;;;;;;22.10;57.60;;;;;;4975161;28;20364;-74
2023/04/03 04:57:45;;;;;;;;;;;22.00;50.70;;;;;;4974784;28;19910;-72
2023/04/03 05:00:11;;;;;;;;;;;22.30;49.60;;;;;;4975313;28;19921;-72
2023/04/03 05:02:37;;;;;;;;;;;22.10;49.30;;;;;;4975617;28;19924;-71
2023/04/03 05:05:03;;;;;;;;;;;22.30;49.20;;;;;;4949374;29;19915;-71
2023/04/03 05:07:29;;;;;;;;;;;22.30;49.50;;;;;;4932054;29;20424;-71
2023/04/03 05:09:57;;;;;;;;;;;22.40;47.60;;;;;;4927645;29;20334;-71
2023/04/03 05:12:23;;;;;;;;;;;22.50;49.30;;;;;;4978166;28;19925;-72
2023/04/03 05:14:54;;;;;;;;;;;22.60;50.30;;;;;;5001823;28;20276;-73
2023/04/03 05:17:21;;;;;;;;;;;22.70;50.40;;;;;;5031461;28;20277;-74
2023/04/03 05:19:50;;;;;;;;;;;22.70;48.40;;;;;;5032509;28;19920;-74
2023/04/03 05:22:19;;;;;;;;;;;22.60;47.10;;;;;;5032744;28;19920;-74
2023/04/03 05:24:45;;;;;;;;;;;22.80;48.90;;;;;;5032994;28;19977;-73
2023/04/03 05:27:11;;;;;;;;;;;22.70;47.60;;;;;;5029498;28;19915;-71
2023/04/03 05:29:43;;;;;;;;;;;22.80;48.00;;;;;;5045938;28;20257;-74
2023/04/03 05:32:11;;;;;;;;;;;22.90;56.40;;;;;;5029418;28;19916;-74
2023/04/03 05:34:37;;;;;;;;;;;23.00;54.10;;;;;;5032980;28;19940;-74
2023/04/03 05:37:04;;;;;;;;;;;22.80;58.60;;;;;;5069961;28;19912;-73
2023/04/03 05:39:31;;;;;;;;;;;22.70;59.90;;;;;;5071354;28;19999;-71
2023/04/03 05:41:59;;;;;;;;;;;22.70;56.00;;;;;;5073977;28;19969;-74
2023/04/03 05:44:25;;;;;;;;;;;22.60;55.30;;;;;;5073429;28;20364;-76
2023/04/03 05:46:52;;;;;;;;;;;22.50;53.90;;;;;;5078909;28;19908;-76
2023/04/03 05:49:19;;;;;;;;;;;22.60;58.00;;;;;;5080158;28;19993;-74
2023/04/03 05:51:45;;;;;;;;;;;22.80;56.40;;;;;;5088078;28;19998;-75
2023/04/03 05:54:31;;;;;;;;;;;22.80;61.30;;;;;;5071239;28;19931;-77
2023/04/03 05:57:18;;;;;;;;;;;23.00;60.50;;;;;;5071812;28;20295;-75
2023/04/03 05:59:44;;;;;;;;;;;23.20;56.80;;;;;;5070434;28;19927;-74
2023/04/03 06:02:12;;;;;;;;;;;23.40;55.30;;;;;;5081009;28;19934;-75
2023/04/03 06:04:38;;;;;;;;;;;23.20;57.00;;;;;;5070797;28;19948;-74
2023/04/03 06:07:04;;;;;;;;;;;22.90;56.30;;;;;;5070321;28;20402;-75
2023/04/03 06:09:30;;;;;;;;;;;23.40;63.70;;;;;;5071505;28;20387;-76
2023/04/03 06:11:58;;;;;;;;;;;23.60;64.70;;;;;;5072760;28;19927;-75
2023/04/03 06:14:25;;;;;;;;;;;23.70;73.40;;;;;;5063847;28;19974;-76
2023/04/03 06:16:52;;;;;;;;;;;23.70;66.70;;;;;;5059591;28;20419;-76
2023/04/03 06:19:19;;;;;;;;;;;23.80;68.80;;;;;;5033945;28;19916;-74
2023/04/03 06:21:50;;;;;;;;;;;23.80;59.40;;;;;;5037783;28;19965;-76
2023/04/03 06:24:16;;;;;;;;;;;23.90;45.80;;;;;;5057576;28;19996;-75
2023/04/03 06:26:42;;;;;;;;;;;23.70;41.60;;;;;;5053163;28;20268;-75
2023/04/03 06:29:08;;;;;;;;;;;23.70;40.30;;;;;;5061297;28;19970;-79
2023/04/03 06:31:36;;;;;;;;;;;23.70;40.50;;;;;;5051457;28;19927;-76
2023/04/03 06:34:02;;;;;;;;;;;23.60;40.20;;;;;;5052829;28;19913;-77
2023/04/03 06:36:28;;;;;;;;;;;23.70;39.80;;;;;;5061841;28;19919;-76
2023/04/03 06:38:54;;;;;;;;;;;23.60;39.40;;;;;;5067360;28;19908;-75
2023/04/03 06:41:21;;;;;;;;;;;23.70;39.50;;;;;;5058708;28;19966;-76
2023/04/03 06:43:47;;;;;;;;;;;23.50;39.10;;;;;;5051662;28;19951;-79
2023/04/03 06:46:16;;;;;;;;;;;23.50;38.70;;;;;;5055289;28;19913;-75
2023/04/03 06:48:43;;;;;;;;;;;23.70;38.90;;;;;;5033377;28;20487;-76
2023/04/03 06:51:28;;;;;;;;;;;23.50;38.80;;;;;;5052536;28;19960;-73
2023/04/03 06:53:56;;;;;;;;;;;23.50;38.90;;;;;;5033624;28;19923;-74
2023/04/03 06:56:22;;;;;;;;;;;23.60;38.30;;;;;;5059909;28;20279;-77
2023/04/03 06:58:48;;;;;;;;;;;23.40;38.70;;;;;;5051570;28;20057;-73
2023/04/03 07:01:16;;;;;;;;;;;23.40;39.50;;;;;;5052378;28;19912;-75
2023/04/03 07:03:42;;;;;;;;;;;23.50;41.00;;;;;;5058457;28;19919;-72
2023/04/03 07:06:10;;;;;;;;;;;23.50;39.90;;;;;;5062772;28;19999;-72
2023/04/03 07:08:36;;;;;;;;;;;23.50;41.10;;;;;;5053445;28;19917;-72
2023/04/03 07:11:04;;;;;;;;;;;23.50;40.70;;;;;;5060572;28;20006;-70
2023/04/03 07:13:30;;;;;;;;;;;23.50;40.50;;;;;;5056697;28;20071;-75
2023/04/03 07:15:56;;;;;;;;;;;23.40;39.00;;;;;;5056566;28;20380;-74
2023/04/03 07:18:23;;;;;;;;;;;23.30;38.90;;;;;;5068595;28;19915;-75
2023/04/03 07:20:49;;;;;;;;;;;23.40;38.70;;;;;;5059387;28;19939;-74
2023/04/03 07:23:15;;;;;;;;;;;23.20;40.80;;;;;;5068775;28;19970;-77
2023/04/03 07:25:44;;;;;;;;;;;23.40;53.70;;;;;;5066012;28;19908;-73
2023/04/03 07:28:11;;;;;;;;;;;23.50;56.00;;;;;;5064162;28;19973;-73
2023/04/03 07:30:47;;;;;;;;;;;23.70;55.10;;;;;;5055813;28;19970;-72
2023/04/03 07:33:14;;;;;;;;;;;23.70;55.30;;;;;;5050346;28;19909;-72
2023/04/03 07:35:40;;;;;;;;;;;23.70;55.10;;;;;;5046320;28;19958;-73
2023/04/03 07:38:06;;;;;;;;;;;23.70;55.50;;;;;;5059220;28;20375;-71
2023/04/03 07:40:32;;;;;;;;;;;23.70;56.60;;;;;;5057582;28;19952;-73
2023/04/03 07:42:59;;;;;;;;;;;23.60;54.80;;;;;;5050619;28;19916;-72
2023/04/03 07:45:25;;;;;;;;;;;23.70;56.50;;;;;;5059160;28;19962;-71
2023/04/03 07:47:51;;;;;;;;;;;23.70;56.30;;;;;;5052351;28;19917;-74
2023/04/03 07:50:17;;;;;;;;;;;23.70;56.00;;;;;;5058833;28;19924;-71
2023/04/03 07:52:43;;;;;;;;;;;23.80;54.40;;;;;;5069989;28;19958;-71
2023/04/03 07:55:09;;;;;;;;;;;23.80;53.60;;;;;;5058877;28;20291;-73
2023/04/03 07:57:36;;;;;;;;;;;23.70;54.90;;;;;;5036093;28;19909;-70
2023/04/03 08:00:02;;;;;;;;;;;23.80;53.60;;;;;;5059590;28;19919;-71
2023/04/03 08:02:37;;;;;;;;;;;23.80;54.80;;;;;;5061729;28;19935;-72
2023/04/03 08:05:03;;;;;;;;;;;23.70;54.90;;;;;;5062544;28;19916;-72
2023/04/03 08:07:29;;;;;;;;;;;23.80;54.40;;;;;;5064731;28;19908;-72
2023/04/03 08:09:55;;;;;;;;;;;23.70;52.70;;;;;;5047913;28;20430;-73
2023/04/03 08:12:21;;;;;;;;;;;23.90;55.80;;;;;;5074103;28;19912;-73
2023/04/03 08:14:47;;;;;;;;;;;23.70;54.30;;;;;;5043618;28;19917;-72
2023/04/03 08:17:13;;;;;;;;;;;23.70;55.50;;;;;;5076170;28;19908;-73
2023/04/03 08:19:39;;;;;;;;;;;23.70;55.40;;;;;;5079116;28;20382;-73
2023/04/03 08:22:06;;;;;;;;;;;23.70;54.70;;;;;;5079298;28;20334;-73
2023/04/03 08:24:32;;;;;;;;;;;23.70;55.00;;;;;;5086095;28;20012;-72
2023/04/03 08:26:58;;;;;;;;;;;23.90;54.30;;;;;;5077355;28;20016;-73
2023/04/03 08:29:24;;;;;;;;;;;23.90;54.80;;;;;;5080004;28;19908;-73
2023/04/03 08:31:50;;;;;;;;;;;23.70;53.60;;;;;;5080741;28;19927;-73
2023/04/03 08:34:16;;;;;;;;;;;23.70;54.50;;;;;;5073923;28;19995;-73
2023/04/03 08:36:42;;;;;;;;;;;23.70;53.10;;;;;;5093910;28;19947;-73
2023/04/03 08:39:08;;;;;;;;;;;23.70;54.30;;;;;;5088901;28;20005;-73
2023/04/03 08:41:47;;;;;;;;;;;23.70;54.80;;;;;;5083752;28;20672;-72
2023/04/03 08:44:22;;;;;;;;;;;23.70;54.50;;;;;;5076057;28;20073;-72
2023/04/03 08:47:07;;;;;;;;;;;23.80;54.90;;;;;;5073959;28;19997;-73
2023/04/03 08:49:40;;;;;;;;;;;23.70;54.80;;;;;;5073092;28;20363;-73
2023/04/03 08:52:12;;;;;;;;;;;23.80;54.40;;;;;;5079770;28;19915;-73
2023/04/03 08:54:49;;;;;;;;;;;23.70;55.10;;;;;;5085215;28;20002;-73
2023/04/03 08:57:15;;;;;;;;;;;23.70;56.80;;;;;;5084303;28;19908;-72
2023/04/03 08:59:41;;;;;;;;;;;23.70;55.40;;;;;;5083033;28;19908;-71
2023/04/03 09:02:21;;;;;;;;;;;23.90;56.70;;;;;;5087000;28;19919;-76
2023/04/03 09:04:47;;;;;;;;;;;23.80;55.50;;;;;;5089049;28;19923;-76
2023/04/03 09:07:25;;;;;;;;;;;23.90;55.00;;;;;;5085033;28;19908;-75
2023/04/03 09:09:52;;;;;;;;;;;23.80;55.70;;;;;;5079450;28;19935;-75
2023/04/03 09:12:23;;;;;;;;;;;23.80;57.30;;;;;;5084252;28;19935;-74
2023/04/03 09:15:01;;;;;;;;;;;23.90;57.20;;;;;;5065090;28;20399;-73
2023/04/03 09:17:46;;;;;;;;;;;23.90;57.00;;;;;;5037477;28;19966;-72
2023/04/03 09:20:24;;;;;;;;;;;23.90;57.10;;;;;;5064660;28;19912;-72
2023/04/03 09:22:52;;;;;;;;;;;24.00;58.10;;;;;;5066370;28;21997;-72
2023/04/03 09:25:21;;;;;;;;;;;23.90;59.50;;;;;;5031617;28;19992;-72
2023/04/03 09:27:47;;;;;;;;;;;23.90;57.50;;;;;;5035650;28;19908;-72
2023/04/03 09:30:18;;;;;;;;;;;23.80;57.50;;;;;;5050521;28;19925;-72
2023/04/03 09:32:45;;;;;;;;;;;23.80;58.10;;;;;;5067521;28;20602;-72
2023/04/03 09:35:17;;;;;;;;;;;23.90;60.70;;;;;;5054469;28;19915;-74
2023/04/03 09:37:45;;;;;;;;;;;24.20;62.70;;;;;;5049279;28;19912;-74
2023/04/03 09:40:25;;;;;;;;;;;24.50;62.20;;;;;;5051334;28;20596;-73
2023/04/03 09:42:53;;;;;;;;;;;24.70;72.30;;;;;;5050004;28;20321;-76
2023/04/03 09:45:27;;;;;;;;;;;25.30;72.80;;;;;;5054460;28;19948;-73
2023/04/03 09:48:07;;;;;;;;;;;25.30;68.10;;;;;;5052460;28;19989;-75
2023/04/03 09:50:34;;;;;;;;;;;25.10;63.10;;;;;;5060232;28;19926;-73
2023/04/03 09:53:04;;;;;;;;;;;25.20;58.90;;;;;;5063401;28;19908;-76
2023/04/03 09:55:30;;;;;;;;;;;24.80;59.00;;;;;;5069672;28;19952;-74
2023/04/03 09:58:03;;;;;;;;;;;24.80;59.60;;;;;;5070138;28;19909;-73
2023/04/03 10:00:29;;;;;;;;;;;24.70;60.10;;;;;;5063949;28;19912;-76
2023/04/03 10:02:56;;;;;;;;;;;24.70;58.40;;;;;;5055968;28;19908;-74
2023/04/03 10:05:35;;;;;;;;;;;24.50;59.40;;;;;;5067678;28;20392;-78
2023/04/03 10:08:07;;;;;;;;;;;24.50;59.40;;;;;;5041180;28;19952;-74
2023/04/03 10:10:33;;;;;;;;;;;24.50;57.90;;;;;;5057550;28;19916;-74
2023/04/03 10:13:18;;;;;;;;;;;24.30;58.90;;;;;;5036583;28;19920;-79
2023/04/03 10:15:46;;;;;;;;;;;24.20;58.10;;;;;;5060228;28;19920;-71
2023/04/03 10:18:15;;;;;;;;;;;24.10;55.30;;;;;;5060253;28;19908;-74
2023/04/03 10:20:46;;;;;;;;;;;24.00;59.20;;;;;;5054968;28;19916;-73
2023/04/03 10:23:22;;;;;;;;;;;24.10;59.70;;;;;;5062822;28;19908;-74
2023/04/03 10:26:12;;;;;;;;;;;24.00;58.60;;;;;;5043004;28;20411;-74
2023/04/03 10:28:45;;;;;;;;;;;24.10;57.10;;;;;;5061262;28;19917;-74
2023/04/03 10:31:11;;;;;;;;;;;23.90;56.20;;;;;;5062220;28;20372;-75
2023/04/03 10:33:55;;;;;;;;;;;23.90;60.50;;;;;;5058066;28;19925;-74
2023/04/03 10:36:21;;;;;;;;;;;23.90;61.60;;;;;;5061440;28;19959;-76
2023/04/03 10:38:47;;;;;;;;;;;23.80;63.10;;;;;;5061799;28;19908;-74
2023/04/03 10:41:16;;;;;;;;;;;23.60;64.30;;;;;;5055041;28;19916;-73
2023/04/03 10:44:00;;;;;;;;;;;23.90;62.50;;;;;;5067624;28;19932;-74
2023/04/03 10:46:26;;;;;;;;;;;23.90;61.00;;;;;;5056902;28;19954;-74
2023/04/03 10:48:52;;;;;;;;;;;23.90;58.30;;;;;;5050747;28;19909;-74
2023/04/03 10:51:41;;;;;;;;;;;23.80;59.40;;;;;;5065655;28;19920;-74
2023/04/03 10:54:24;;;;;;;;;;;23.70;56.40;;;;;;5053259;28;19919;-74
2023/04/03 10:56:53;;;;;;;;;;;23.60;58.20;;;;;;5012304;28;19913;-74
2023/04/03 10:59:28;;;;;;;;;;;23.70;58.60;;;;;;5038091;28;20383;-74
2023/04/03 11:02:00;;;;;;;;;;;23.60;57.60;;;;;;5033319;28;20454;-74
2023/04/03 11:04:28;;;;;;;;;;;23.70;57.20;;;;;;5032900;28;19919;-74
2023/04/03 11:07:01;;;;;;;;;;;23.80;59.10;;;;;;5031830;28;19952;-75
2023/04/03 11:09:28;;;;;;;;;;;23.70;57.80;;;;;;5048591;28;20007;-73
2023/04/03 11:12:03;;;;;;;;;;;23.70;59.20;;;;;;5032394;28;19921;-74
2023/04/03 11:14:31;;;;;;;;;;;23.60;58.90;;;;;;5040156;28;19974;-74
2023/04/03 11:17:16;;;;;;;;;;;23.50;58.10;;;;;;5049158;28;20003;-74
2023/04/03 11:20:00;;;;;;;;;;;23.60;58.90;;;;;;5051682;28;20094;-74
2023/04/03 11:22:41;;;;;;;;;;;23.60;56.80;;;;;;5050306;28;20715;-74
2023/04/03 11:25:10;;;;;;;;;;;23.60;58.80;;;;;;5069822;28;19908;-74
2023/04/03 11:27:45;;;;;;;;;;;23.50;57.10;;;;;;5066433;28;20349;-74
2023/04/03 11:30:35;;;;;;;;;;;23.30;56.40;;;;;;5083718;28;19916;-74
2023/04/03 11:33:10;;;;;;;;;;;23.50;59.10;;;;;;4989571;28;19945;-74
2023/04/03 11:35:36;;;;;;;;;;;23.40;55.80;;;;;;4995377;28;19936;-74
2023/04/03 11:38:05;;;;;;;;;;;23.40;56.20;;;;;;5012308;28;20009;-74
2023/04/03 11:40:32;;;;;;;;;;;23.40;55.30;;;;;;5009445;28;19913;-74
2023/04/03 11:42:58;;;;;;;;;;;23.40;58.30;;;;;;5011690;28;19913;-73
2023/04/03 11:45:27;;;;;;;;;;;23.40;51.30;;;;;;5002999;28;19967;-73
2023/04/03 11:47:54;;;;;;;;;;;23.50;48.90;;;;;;4996247;28;19920;-75
2023/04/03 11:50:42;;;;;;;;;;;23.50;47.00;;;;;;4990077;28;19921;-77
2023/04/03 11:53:08;;;;;;;;;;;23.50;43.90;;;;;;5003501;28;19948;-76
2023/04/03 11:55:34;;;;;;;;;;;23.50;43.40;;;;;;5010447;28;19914;-72
2023/04/03 11:58:02;;;;;;;;;;;23.50;44.00;;;;;;4992060;28;19964;-76
2023/04/03 12:00:43;;;;;;;;;;;23.50;45.40;;;;;;4992649;28;19909;-74
2023/04/03 12:03:25;;;;;;;;;;;23.50;44.30;;;;;;4990751;28;19910;-75
2023/04/03 12:06:16;;;;;;;;;;;23.50;45.90;;;;;;5012024;28;19915;-75
2023/04/03 12:08:53;;;;;;;;;;;23.60;45.20;;;;;;4992438;28;19968;-74
2023/04/03 12:11:30;;;;;;;;;;;23.50;44.70;;;;;;5089339;28;20167;-75
2023/04/03 12:13:55;;;;;;;;;;;23.60;44.40;;;;;;5087679;28;19921;-75
2023/04/03 12:16:27;;;;;;;;;;;23.40;42.30;;;;;;5054755;28;19918;-74
2023/04/03 12:19:12;;;;;;;;;;;23.40;42.00;;;;;;5059618;28;19955;-73
2023/04/03 12:21:38;;;;;;;;;;;23.40;41.70;;;;;;5055682;28;19912;-74
2023/04/03 12:24:22;;;;;;;;;;;23.40;42.00;;;;;;5062642;28;20387;-75
2023/04/03 12:27:01;;;;;;;;;;;23.40;52.90;;;;;;5070745;28;19918;-72
2023/04/03 12:29:29;;;;;;;;;;;23.40;53.40;;;;;;5056092;28;19988;-76
2023/04/03 12:31:54;;;;;;;;;;;23.40;54.10;;;;;;5037555;28;19943;-76
2023/04/03 12:34:20;;;;;;;;;;;23.30;54.20;;;;;;5062208;28;19912;-78
2023/04/03 12:37:05;;;;;;;;;;;23.30;55.90;;;;;;5053593;28;19920;-76
2023/04/03 12:39:52;;;;;;;;;;;23.20;54.90;;;;;;5053227;28;20003;-75
2023/04/03 12:42:37;;;;;;;;;;;23.30;55.60;;;;;;5053079;28;20340;-78
2023/04/03 12:45:35;;;;;;;;;;;23.20;56.50;;;;;;5034898;28;19909;-76
2023/04/03 12:48:02;;;;;;;;;;;23.10;56.90;;;;;;5001748;28;20000;-77
2023/04/03 12:50:30;;;;;;;;;;;23.10;55.20;;;;;;4997766;28;19925;-78
2023/04/03 12:52:56;;;;;;;;;;;23.20;57.80;;;;;;5005563;28;19913;-77
2023/04/03 12:55:22;;;;;;;;;;;23.10;58.00;;;;;;5008982;28;19948;-77
2023/04/03 12:57:48;;;;;;;;;;;23.00;54.80;;;;;;5003182;28;19914;-77
2023/04/03 13:00:21;;;;;;;;;;;23.10;56.90;;;;;;5011197;28;20008;-77
2023/04/03 13:02:47;;;;;;;;;;;23.00;57.30;;;;;;4999335;28;19913;-77
2023/04/03 13:05:16;;;;;;;;;;;23.10;57.20;;;;;;4991798;28;20441;-79
2023/04/03 13:07:43;;;;;;;;;;;23.10;57.90;;;;;;4997198;28;20273;-77
2023/04/03 13:10:09;;;;;;;;;;;23.00;54.80;;;;;;5010692;28;20433;-77
2023/04/03 13:12:35;;;;;;;;;;;23.00;58.20;;;;;;5017998;28;19935;-78
2023/04/03 13:15:11;;;;;;;;;;;23.10;57.80;;;;;;5017824;28;19921;-78
2023/04/03 13:17:41;;;;;;;;;;;23.10;55.60;;;;;;5034333;28;19908;-78
2023/04/03 13:20:11;;;;;;;;;;;23.10;57.80;;;;;;5026060;28;19909;-78
2023/04/03 13:22:43;;;;;;;;;;;23.00;56.20;;;;;;5034445;28;19909;-78
2023/04/03 13:25:10;;;;;;;;;;;23.00;54.80;;;;;;5072912;28;19915;-78
2023/04/03 13:27:39;;;;;;;;;;;22.90;55.90;;;;;;5072783;28;19912;-78
2023/04/03 13:30:05;;;;;;;;;;;22.90;54.10;;;;;;5077837;28;19920;-77
2023/04/03 13:32:31;;;;;;;;;;;22.90;55.90;;;;;;5091272;28;20335;-79
2023/04/03 13:34:58;;;;;;;;;;;23.00;56.00;;;;;;5065985;28;19931;-77
2023/04/03 13:37:24;;;;;;;;;;;22.90;56.50;;;;;;5072969;28;19912;-78
2023/04/03 13:40:08;;;;;;;;;;;22.90;57.50;;;;;;5078954;28;19991;-78
2023/04/03 13:42:36;;;;;;;;;;;23.00;55.00;;;;;;5080686;28;19916;-78
2023/04/03 13:45:17;;;;;;;;;;;22.80;53.90;;;;;;5089606;28;19908;-77
2023/04/03 13:47:44;;;;;;;;;;;22.90;57.80;;;;;;5071842;28;20436;-78
2023/04/03 13:50:18;;;;;;;;;;;22.80;57.20;;;;;;5078398;28;19923;-78
2023/04/03 13:52:49;;;;;;;;;;;22.80;56.70;;;;;;5091563;28;19915;-78
2023/04/03 13:55:25;;;;;;;;;;;23.00;55.30;;;;;;5071552;28;19913;-78
2023/04/03 13:58:02;;;;;;;;;;;22.90;57.10;;;;;;5077812;28;19917;-78
2023/04/03 14:00:30;;;;;;;;;;;22.90;57.60;;;;;;5085679;28;19962;-78
2023/04/03 14:02:56;;;;;;;;;;;23.00;56.60;;;;;;5092318;28;19908;-78
2023/04/03 14:05:24;;;;;;;;;;;23.00;56.20;;;;;;5078070;28;19914;-78
2023/04/03 14:07:51;;;;;;;;;;;22.80;56.40;;;;;;5071711;28;19909;-80
2023/04/03 14:10:17;;;;;;;;;;;22.90;55.50;;;;;;5071429;28;19978;-78
2023/04/03 14:12:43;;;;;;;;;;;22.90;55.70;;;;;;5080525;28;19912;-78
2023/04/03 14:15:28;;;;;;;;;;;22.90;55.80;;;;;;5072150;28;20382;-78
2023/04/03 14:17:55;;;;;;;;;;;23.00;57.20;;;;;;5050916;28;19912;-78
2023/04/03 14:20:22;;;;;;;;;;;22.90;55.20;;;;;;5053111;28;20403;-78
2023/04/03 14:22:48;;;;;;;;;;;22.90;55.80;;;;;;5050842;28;20450;-79
2023/04/03 14:25:15;;;;;;;;;;;22.90;57.90;;;;;;5055006;28;19908;-76
2023/04/03 14:27:48;;;;;;;;;;;22.80;57.20;;;;;;5036893;28;19934;-77